sensor_id;sensor_type;location;lat;lon;timestamp;P1;durP1;ratioP1;P2;durP2;ratioP2
80694;SDS011;70059;42.702;23.312;2024-01-25T00:00:21;43.72;;;27.98;;
80694;SDS011;70059;42.702;23.312;2024-01-25T00:02:47;49.40;;;28.70;;
80694;SDS011;70059;42.702;23.312;2024-01-25T00:05:13;45.67;;;27.80;;
80694;SDS011;70059;42.702;23.312;2024-01-25T00:07:48;54.83;;;30.33;;
80694;SDS011;70059;42.702;23.312;2024-01-25T00:10:15;45.05;;;27.33;;
80694;SDS011;70059;42.702;23.312;2024-01-25T00:12:42;45.00;;;24.45;;
80694;SDS011;70059;42.702;23.312;2024-01-25T00:15:08;30.30;;;19.02;;
80694;SDS011;70059;42.702;23.312;2024-01-25T00:17:34;38.85;;;20.90;;
80694;SDS011;70059;42.702;23.312;2024-01-25T00:20:00;21.98;;;14.90;;
80694;SDS011;70059;42.702;23.312;2024-01-25T00:22:25;33.72;;;20.05;;
80694;SDS011;70059;42.702;23.312;2024-01-25T00:24:51;27.02;;;17.30;;
80694;SDS011;70059;42.702;23.312;2024-01-25T00:27:17;29.10;;;16.20;;
80694;SDS011;70059;42.702;23.312;2024-01-25T00:29:42;30.25;;;18.13;;
80694;SDS011;70059;42.702;23.312;2024-01-25T00:32:08;32.60;;;19.27;;
80694;SDS011;70059;42.702;23.312;2024-01-25T00:34:34;32.88;;;20.40;;
80694;SDS011;70059;42.702;23.312;2024-01-25T00:37:00;35.20;;;20.85;;
80694;SDS011;70059;42.702;23.312;2024-01-25T00:39:26;31.25;;;20.30;;
80694;SDS011;70059;42.702;23.312;2024-01-25T00:41:52;33.67;;;20.08;;
80694;SDS011;70059;42.702;23.312;2024-01-25T00:44:28;35.58;;;21.27;;
80694;SDS011;70059;42.702;23.312;2024-01-25T00:46:54;37.65;;;21.88;;
80694;SDS011;70059;42.702;23.312;2024-01-25T00:49:20;31.30;;;20.13;;
80694;SDS011;70059;42.702;23.312;2024-01-25T00:51:46;36.92;;;20.42;;
80694;SDS011;70059;42.702;23.312;2024-01-25T00:54:16;32.78;;;19.23;;
80694;SDS011;70059;42.702;23.312;2024-01-25T00:56:42;31.45;;;18.67;;
80694;SDS011;70059;42.702;23.312;2024-01-25T00:59:08;30.48;;;19.45;;
80694;SDS011;70059;42.702;23.312;2024-01-25T01:01:34;29.33;;;18.02;;
80694;SDS011;70059;42.702;23.312;2024-01-25T01:04:00;33.45;;;19.95;;
80694;SDS011;70059;42.702;23.312;2024-01-25T01:06:25;36.58;;;20.15;;
80694;SDS011;70059;42.702;23.312;2024-01-25T01:08:52;26.50;;;17.73;;
80694;SDS011;70059;42.702;23.312;2024-01-25T01:11:18;28.48;;;16.95;;
80694;SDS011;70059;42.702;23.312;2024-01-25T01:13:44;23.13;;;15.02;;
80694;SDS011;70059;42.702;23.312;2024-01-25T01:16:10;21.27;;;14.32;;
80694;SDS011;70059;42.702;23.312;2024-01-25T01:18:35;16.42;;;11.05;;
80694;SDS011;70059;42.702;23.312;2024-01-25T01:21:03;12.38;;;9.73;;
80694;SDS011;70059;42.702;23.312;2024-01-25T01:23:35;15.27;;;9.90;;
80694;SDS011;70059;42.702;23.312;2024-01-25T01:26:01;14.43;;;10.30;;
80694;SDS011;70059;42.702;23.312;2024-01-25T01:28:28;15.55;;;10.30;;
80694;SDS011;70059;42.702;23.312;2024-01-25T01:30:54;17.20;;;11.88;;
80694;SDS011;70059;42.702;23.312;2024-01-25T01:33:19;19.58;;;11.07;;
80694;SDS011;70059;42.702;23.312;2024-01-25T01:35:47;17.13;;;10.63;;
80694;SDS011;70059;42.702;23.312;2024-01-25T01:38:12;16.08;;;10.30;;
80694;SDS011;70059;42.702;23.312;2024-01-25T01:40:44;17.90;;;11.90;;
80694;SDS011;70059;42.702;23.312;2024-01-25T01:43:21;17.80;;;12.10;;
80694;SDS011;70059;42.702;23.312;2024-01-25T01:45:48;22.77;;;14.70;;
80694;SDS011;70059;42.702;23.312;2024-01-25T01:48:14;19.45;;;11.70;;
80694;SDS011;70059;42.702;23.312;2024-01-25T01:50:42;19.88;;;12.10;;
80694;SDS011;70059;42.702;23.312;2024-01-25T01:53:09;32.03;;;14.23;;
80694;SDS011;70059;42.702;23.312;2024-01-25T01:55:35;23.00;;;13.73;;
80694;SDS011;70059;42.702;23.312;2024-01-25T01:58:01;25.73;;;14.38;;
80694;SDS011;70059;42.702;23.312;2024-01-25T02:00:28;19.02;;;12.85;;
80694;SDS011;70059;42.702;23.312;2024-01-25T02:02:55;20.95;;;12.57;;
80694;SDS011;70059;42.702;23.312;2024-01-25T02:05:31;19.98;;;12.55;;
80694;SDS011;70059;42.702;23.312;2024-01-25T02:07:56;19.30;;;13.10;;
80694;SDS011;70059;42.702;23.312;2024-01-25T02:10:22;18.52;;;13.98;;
80694;SDS011;70059;42.702;23.312;2024-01-25T02:12:48;21.80;;;13.77;;
80694;SDS011;70059;42.702;23.312;2024-01-25T02:15:13;22.27;;;14.52;;
80694;SDS011;70059;42.702;23.312;2024-01-25T02:17:39;24.27;;;14.90;;
80694;SDS011;70059;42.702;23.312;2024-01-25T02:20:05;29.88;;;16.75;;
80694;SDS011;70059;42.702;23.312;2024-01-25T02:22:35;29.75;;;16.98;;
80694;SDS011;70059;42.702;23.312;2024-01-25T02:25:00;28.88;;;16.30;;
80694;SDS011;70059;42.702;23.312;2024-01-25T02:27:26;30.45;;;16.60;;
80694;SDS011;70059;42.702;23.312;2024-01-25T02:29:52;27.50;;;17.45;;
80694;SDS011;70059;42.702;23.312;2024-01-25T02:32:17;26.35;;;15.85;;
80694;SDS011;70059;42.702;23.312;2024-01-25T02:34:43;26.48;;;15.73;;
80694;SDS011;70059;42.702;23.312;2024-01-25T02:37:08;22.42;;;14.43;;
80694;SDS011;70059;42.702;23.312;2024-01-25T02:39:36;19.73;;;13.13;;
80694;SDS011;70059;42.702;23.312;2024-01-25T02:42:01;18.00;;;11.57;;
80694;SDS011;70059;42.702;23.312;2024-01-25T02:44:27;14.80;;;9.98;;
80694;SDS011;70059;42.702;23.312;2024-01-25T02:46:53;14.43;;;9.75;;
80694;SDS011;70059;42.702;23.312;2024-01-25T02:49:18;12.20;;;9.07;;
80694;SDS011;70059;42.702;23.312;2024-01-25T02:51:44;9.32;;;7.80;;
80694;SDS011;70059;42.702;23.312;2024-01-25T02:54:10;12.75;;;7.25;;
80694;SDS011;70059;42.702;23.312;2024-01-25T02:56:35;8.18;;;6.53;;
80694;SDS011;70059;42.702;23.312;2024-01-25T02:59:07;7.97;;;6.72;;
80694;SDS011;70059;42.702;23.312;2024-01-25T03:01:40;8.55;;;6.75;;
80694;SDS011;70059;42.702;23.312;2024-01-25T03:04:06;7.90;;;7.10;;
80694;SDS011;70059;42.702;23.312;2024-01-25T03:06:32;8.20;;;6.78;;
80694;SDS011;70059;42.702;23.312;2024-01-25T03:08:58;5.72;;;5.22;;
80694;SDS011;70059;42.702;23.312;2024-01-25T03:11:23;6.43;;;5.72;;
80694;SDS011;70059;42.702;23.312;2024-01-25T03:13:49;8.93;;;5.90;;
80694;SDS011;70059;42.702;23.312;2024-01-25T03:16:15;5.80;;;5.10;;
80694;SDS011;70059;42.702;23.312;2024-01-25T03:18:40;6.72;;;6.13;;
80694;SDS011;70059;42.702;23.312;2024-01-25T03:21:07;4.97;;;4.65;;
80694;SDS011;70059;42.702;23.312;2024-01-25T03:23:33;5.68;;;4.90;;
80694;SDS011;70059;42.702;23.312;2024-01-25T03:25:58;5.88;;;5.28;;
80694;SDS011;70059;42.702;23.312;2024-01-25T03:28:27;5.03;;;3.88;;
80694;SDS011;70059;42.702;23.312;2024-01-25T03:30:53;5.30;;;4.80;;
80694;SDS011;70059;42.702;23.312;2024-01-25T03:33:18;5.00;;;4.60;;
80694;SDS011;70059;42.702;23.312;2024-01-25T03:35:44;5.80;;;5.18;;
80694;SDS011;70059;42.702;23.312;2024-01-25T03:38:09;6.85;;;5.28;;
80694;SDS011;70059;42.702;23.312;2024-01-25T03:40:41;9.27;;;6.50;;
80694;SDS011;70059;42.702;23.312;2024-01-25T03:43:07;5.65;;;5.15;;
80694;SDS011;70059;42.702;23.312;2024-01-25T03:45:33;5.55;;;5.05;;
80694;SDS011;70059;42.702;23.312;2024-01-25T03:47:58;5.50;;;5.00;;
80694;SDS011;70059;42.702;23.312;2024-01-25T03:50:24;4.88;;;4.55;;
80694;SDS011;70059;42.702;23.312;2024-01-25T03:52:50;5.32;;;4.93;;
80694;SDS011;70059;42.702;23.312;2024-01-25T03:55:15;4.88;;;4.47;;
80694;SDS011;70059;42.702;23.312;2024-01-25T03:57:41;5.50;;;4.82;;
80694;SDS011;70059;42.702;23.312;2024-01-25T04:00:07;4.68;;;4.28;;
80694;SDS011;70059;42.702;23.312;2024-01-25T04:02:34;5.30;;;4.60;;
80694;SDS011;70059;42.702;23.312;2024-01-25T04:04:59;4.30;;;4.00;;
80694;SDS011;70059;42.702;23.312;2024-01-25T04:07:25;4.97;;;4.53;;
80694;SDS011;70059;42.702;23.312;2024-01-25T04:09:50;4.60;;;4.30;;
80694;SDS011;70059;42.702;23.312;2024-01-25T04:12:16;7.35;;;5.18;;
80694;SDS011;70059;42.702;23.312;2024-01-25T04:14:48;5.25;;;4.85;;
80694;SDS011;70059;42.702;23.312;2024-01-25T04:17:21;5.30;;;4.80;;
80694;SDS011;70059;42.702;23.312;2024-01-25T04:19:46;15.80;;;8.85;;
80694;SDS011;70059;42.702;23.312;2024-01-25T04:22:15;8.88;;;6.70;;
80694;SDS011;70059;42.702;23.312;2024-01-25T04:24:41;7.65;;;6.40;;
80694;SDS011;70059;42.702;23.312;2024-01-25T04:27:08;10.75;;;7.63;;
80694;SDS011;70059;42.702;23.312;2024-01-25T04:29:34;9.93;;;6.40;;
80694;SDS011;70059;42.702;23.312;2024-01-25T04:31:59;9.00;;;6.25;;
80694;SDS011;70059;42.702;23.312;2024-01-25T04:34:25;8.10;;;5.97;;
80694;SDS011;70059;42.702;23.312;2024-01-25T04:43:56;10.10;;;6.75;;
80694;SDS011;70059;42.702;23.312;2024-01-25T04:46:52;11.90;;;7.32;;
80694;SDS011;70059;42.702;23.312;2024-01-25T04:49:28;8.35;;;6.10;;
80694;SDS011;70059;42.702;23.312;2024-01-25T04:52:12;9.10;;;6.05;;
80694;SDS011;70059;42.702;23.312;2024-01-25T04:55:00;7.60;;;5.88;;
80694;SDS011;70059;42.702;23.312;2024-01-25T05:00:24;11.57;;;6.85;;
80694;SDS011;70059;42.702;23.312;2024-01-25T05:03:39;7.57;;;6.10;;
80694;SDS011;70059;42.702;23.312;2024-01-25T05:06:28;9.48;;;6.50;;
80694;SDS011;70059;42.702;23.312;2024-01-25T05:12:27;10.15;;;6.90;;
80694;SDS011;70059;42.702;23.312;2024-01-25T05:15:13;11.80;;;7.72;;
80694;SDS011;70059;42.702;23.312;2024-01-25T05:32:09;8.20;;;5.68;;
80694;SDS011;70059;42.702;23.312;2024-01-25T05:34:56;11.13;;;6.60;;
80694;SDS011;70059;42.702;23.312;2024-01-25T05:38:07;8.80;;;6.53;;
80694;SDS011;70059;42.702;23.312;2024-01-25T05:44:35;7.30;;;5.03;;
80694;SDS011;70059;42.702;23.312;2024-01-25T05:47:07;7.22;;;5.13;;
80694;SDS011;70059;42.702;23.312;2024-01-25T05:53:18;7.10;;;5.43;;
80694;SDS011;70059;42.702;23.312;2024-01-25T06:02:07;7.30;;;5.15;;
80694;SDS011;70059;42.702;23.312;2024-01-25T06:05:28;7.90;;;5.30;;
80694;SDS011;70059;42.702;23.312;2024-01-25T06:18:17;9.43;;;7.97;;
80694;SDS011;70059;42.702;23.312;2024-01-25T06:20:42;10.93;;;6.65;;
80694;SDS011;70059;42.702;23.312;2024-01-25T06:23:09;8.02;;;7.20;;
80694;SDS011;70059;42.702;23.312;2024-01-25T06:25:44;11.75;;;7.25;;
80694;SDS011;70059;42.702;23.312;2024-01-25T06:28:30;11.00;;;6.18;;
80694;SDS011;70059;42.702;23.312;2024-01-25T06:30:56;8.70;;;5.60;;
80694;SDS011;70059;42.702;23.312;2024-01-25T06:33:28;9.10;;;7.35;;
80694;SDS011;70059;42.702;23.312;2024-01-25T06:35:55;12.38;;;8.20;;
80694;SDS011;70059;42.702;23.312;2024-01-25T06:38:22;13.52;;;7.40;;
80694;SDS011;70059;42.702;23.312;2024-01-25T06:40:48;7.95;;;7.13;;
80694;SDS011;70059;42.702;23.312;2024-01-25T06:43:17;10.95;;;7.40;;
80694;SDS011;70059;42.702;23.312;2024-01-25T06:45:49;9.32;;;7.68;;
80694;SDS011;70059;42.702;23.312;2024-01-25T06:48:15;13.30;;;8.10;;
80694;SDS011;70059;42.702;23.312;2024-01-25T06:50:41;12.27;;;7.75;;
80694;SDS011;70059;42.702;23.312;2024-01-25T06:53:06;9.30;;;7.95;;
80694;SDS011;70059;42.702;23.312;2024-01-25T06:55:32;15.27;;;7.65;;
80694;SDS011;70059;42.702;23.312;2024-01-25T06:57:58;12.35;;;8.18;;
80694;SDS011;70059;42.702;23.312;2024-01-25T07:00:23;9.60;;;6.82;;
80694;SDS011;70059;42.702;23.312;2024-01-25T07:02:49;14.15;;;7.07;;
80694;SDS011;70059;42.702;23.312;2024-01-25T07:05:15;11.20;;;7.90;;
80694;SDS011;70059;42.702;23.312;2024-01-25T07:07:47;7.68;;;5.88;;
80694;SDS011;70059;42.702;23.312;2024-01-25T07:10:13;9.52;;;6.68;;
80694;SDS011;70059;42.702;23.312;2024-01-25T07:12:39;10.43;;;5.97;;
80694;SDS011;70059;42.702;23.312;2024-01-25T07:15:05;6.50;;;5.70;;
80694;SDS011;70059;42.702;23.312;2024-01-25T07:17:30;8.73;;;5.68;;
80694;SDS011;70059;42.702;23.312;2024-01-25T07:19:56;7.15;;;5.32;;
80694;SDS011;70059;42.702;23.312;2024-01-25T07:22:25;6.88;;;6.20;;
80694;SDS011;70059;42.702;23.312;2024-01-25T07:24:51;9.70;;;5.55;;
80694;SDS011;70059;42.702;23.312;2024-01-25T07:27:16;8.45;;;5.85;;
80694;SDS011;70059;42.702;23.312;2024-01-25T07:29:43;8.60;;;6.57;;
80694;SDS011;70059;42.702;23.312;2024-01-25T07:32:12;6.90;;;5.43;;
80694;SDS011;70059;42.702;23.312;2024-01-25T07:34:38;8.55;;;6.53;;
80694;SDS011;70059;42.702;23.312;2024-01-25T07:37:03;7.63;;;5.30;;
80694;SDS011;70059;42.702;23.312;2024-01-25T07:39:29;9.57;;;6.38;;
80694;SDS011;70059;42.702;23.312;2024-01-25T07:41:55;6.15;;;5.53;;
80694;SDS011;70059;42.702;23.312;2024-01-25T07:44:21;8.07;;;6.40;;
80694;SDS011;70059;42.702;23.312;2024-01-25T07:46:46;10.52;;;5.97;;
80694;SDS011;70059;42.702;23.312;2024-01-25T07:49:19;12.85;;;7.35;;
80694;SDS011;70059;42.702;23.312;2024-01-25T07:51:45;16.27;;;10.10;;
80694;SDS011;70059;42.702;23.312;2024-01-25T07:54:20;8.48;;;6.28;;
80694;SDS011;70059;42.702;23.312;2024-01-25T07:56:46;8.77;;;6.57;;
80694;SDS011;70059;42.702;23.312;2024-01-25T07:59:16;9.52;;;6.65;;
80694;SDS011;70059;42.702;23.312;2024-01-25T08:01:45;12.63;;;7.22;;
80694;SDS011;70059;42.702;23.312;2024-01-25T08:04:11;11.95;;;7.53;;
80694;SDS011;70059;42.702;23.312;2024-01-25T08:06:55;7.40;;;6.70;;
80694;SDS011;70059;42.702;23.312;2024-01-25T08:09:21;8.30;;;6.65;;
80694;SDS011;70059;42.702;23.312;2024-01-25T08:11:47;9.00;;;6.00;;
80694;SDS011;70059;42.702;23.312;2024-01-25T08:14:25;11.25;;;6.22;;
80694;SDS011;70059;42.702;23.312;2024-01-25T08:16:51;9.00;;;5.90;;
80694;SDS011;70059;42.702;23.312;2024-01-25T08:19:17;10.35;;;6.55;;
80694;SDS011;70059;42.702;23.312;2024-01-25T08:21:44;10.73;;;6.70;;
80694;SDS011;70059;42.702;23.312;2024-01-25T08:24:14;6.38;;;5.60;;
80694;SDS011;70059;42.702;23.312;2024-01-25T08:26:43;13.02;;;7.20;;
80694;SDS011;70059;42.702;23.312;2024-01-25T08:29:10;9.93;;;6.50;;
80694;SDS011;70059;42.702;23.312;2024-01-25T08:31:42;11.05;;;6.68;;
80694;SDS011;70059;42.702;23.312;2024-01-25T08:34:08;8.93;;;5.78;;
80694;SDS011;70059;42.702;23.312;2024-01-25T08:36:33;8.98;;;7.10;;
80694;SDS011;70059;42.702;23.312;2024-01-25T08:38:59;9.77;;;6.68;;
80694;SDS011;70059;42.702;23.312;2024-01-25T08:41:25;11.80;;;6.30;;
80694;SDS011;70059;42.702;23.312;2024-01-25T08:43:51;14.32;;;6.85;;
80694;SDS011;70059;42.702;23.312;2024-01-25T08:46:17;8.63;;;6.88;;
80694;SDS011;70059;42.702;23.312;2024-01-25T08:48:50;10.05;;;5.93;;
80694;SDS011;70059;42.702;23.312;2024-01-25T08:51:15;9.68;;;6.45;;
80694;SDS011;70059;42.702;23.312;2024-01-25T08:53:44;8.18;;;6.50;;
80694;SDS011;70059;42.702;23.312;2024-01-25T08:56:17;11.63;;;7.93;;
80694;SDS011;70059;42.702;23.312;2024-01-25T08:58:43;14.68;;;9.32;;
80694;SDS011;70059;42.702;23.312;2024-01-25T09:01:09;12.60;;;6.95;;
80694;SDS011;70059;42.702;23.312;2024-01-25T09:03:35;10.65;;;6.82;;
80694;SDS011;70059;42.702;23.312;2024-01-25T09:06:01;9.82;;;7.47;;
80694;SDS011;70059;42.702;23.312;2024-01-25T09:08:30;9.77;;;6.05;;
80694;SDS011;70059;42.702;23.312;2024-01-25T09:10:57;7.60;;;6.65;;
80694;SDS011;70059;42.702;23.312;2024-01-25T09:13:23;9.48;;;6.55;;
80694;SDS011;70059;42.702;23.312;2024-01-25T09:15:49;12.93;;;6.95;;
80694;SDS011;70059;42.702;23.312;2024-01-25T09:18:22;10.38;;;6.00;;
80694;SDS011;70059;42.702;23.312;2024-01-25T09:20:48;9.25;;;6.72;;
80694;SDS011;70059;42.702;23.312;2024-01-25T09:23:14;10.40;;;6.85;;
80694;SDS011;70059;42.702;23.312;2024-01-25T09:25:46;11.32;;;7.72;;
80694;SDS011;70059;42.702;23.312;2024-01-25T09:28:11;10.57;;;7.00;;
80694;SDS011;70059;42.702;23.312;2024-01-25T09:30:40;12.68;;;6.30;;
80694;SDS011;70059;42.702;23.312;2024-01-25T09:33:07;13.32;;;7.60;;
80694;SDS011;70059;42.702;23.312;2024-01-25T09:35:36;10.77;;;6.68;;
80694;SDS011;70059;42.702;23.312;2024-01-25T09:38:01;10.95;;;6.97;;
80694;SDS011;70059;42.702;23.312;2024-01-25T09:40:30;13.60;;;7.72;;
80694;SDS011;70059;42.702;23.312;2024-01-25T09:43:01;14.07;;;8.20;;
80694;SDS011;70059;42.702;23.312;2024-01-25T09:45:34;10.85;;;7.45;;
80694;SDS011;70059;42.702;23.312;2024-01-25T09:48:00;13.32;;;8.60;;
80694;SDS011;70059;42.702;23.312;2024-01-25T09:50:29;10.52;;;7.35;;
80694;SDS011;70059;42.702;23.312;2024-01-25T09:53:01;13.45;;;7.80;;
80694;SDS011;70059;42.702;23.312;2024-01-25T09:58:00;12.75;;;8.15;;
80694;SDS011;70059;42.702;23.312;2024-01-25T10:00:26;11.98;;;8.25;;
80694;SDS011;70059;42.702;23.312;2024-01-25T10:02:52;14.27;;;9.18;;
80694;SDS011;70059;42.702;23.312;2024-01-25T10:05:18;12.95;;;8.10;;
80694;SDS011;70059;42.702;23.312;2024-01-25T10:07:45;15.68;;;7.20;;
80694;SDS011;70059;42.702;23.312;2024-01-25T10:10:12;9.20;;;7.50;;
80694;SDS011;70059;42.702;23.312;2024-01-25T10:12:41;14.43;;;8.13;;
80694;SDS011;70059;42.702;23.312;2024-01-25T10:18:40;15.27;;;8.02;;
80694;SDS011;70059;42.702;23.312;2024-01-25T10:21:10;10.25;;;7.35;;
80694;SDS011;70059;42.702;23.312;2024-01-25T10:23:37;10.98;;;7.00;;
80694;SDS011;70059;42.702;23.312;2024-01-25T10:26:03;14.45;;;7.20;;
80694;SDS011;70059;42.702;23.312;2024-01-25T10:28:29;12.85;;;8.27;;
80694;SDS011;70059;42.702;23.312;2024-01-25T10:30:56;15.13;;;7.60;;
80694;SDS011;70059;42.702;23.312;2024-01-25T10:33:26;15.80;;;8.85;;
80694;SDS011;70059;42.702;23.312;2024-01-25T10:35:56;10.65;;;7.55;;
80694;SDS011;70059;42.702;23.312;2024-01-25T10:42:34;11.55;;;8.40;;
80694;SDS011;70059;42.702;23.312;2024-01-25T10:45:06;10.20;;;7.65;;
80694;SDS011;70059;42.702;23.312;2024-01-25T10:47:40;11.63;;;7.45;;
80694;SDS011;70059;42.702;23.312;2024-01-25T10:53:23;11.90;;;6.93;;
80694;SDS011;70059;42.702;23.312;2024-01-25T10:55:50;13.88;;;8.02;;
80694;SDS011;70059;42.702;23.312;2024-01-25T10:58:29;9.50;;;7.25;;
80694;SDS011;70059;42.702;23.312;2024-01-25T11:00:56;10.85;;;8.25;;
80694;SDS011;70059;42.702;23.312;2024-01-25T11:03:34;12.30;;;8.38;;
80694;SDS011;70059;42.702;23.312;2024-01-25T11:06:10;12.55;;;8.48;;
80694;SDS011;70059;42.702;23.312;2024-01-25T11:08:42;12.50;;;9.63;;
80694;SDS011;70059;42.702;23.312;2024-01-25T11:11:12;11.43;;;7.65;;
80694;SDS011;70059;42.702;23.312;2024-01-25T11:13:40;9.45;;;6.85;;
80694;SDS011;70059;42.702;23.312;2024-01-25T11:16:14;10.90;;;8.77;;
80694;SDS011;70059;42.702;23.312;2024-01-25T11:18:50;9.07;;;8.07;;
80694;SDS011;70059;42.702;23.312;2024-01-25T11:21:38;11.85;;;9.05;;
80694;SDS011;70059;42.702;23.312;2024-01-25T11:24:11;14.70;;;8.73;;
80694;SDS011;70059;42.702;23.312;2024-01-25T11:26:45;13.68;;;7.88;;
80694;SDS011;70059;42.702;23.312;2024-01-25T11:29:18;11.68;;;7.40;;
80694;SDS011;70059;42.702;23.312;2024-01-25T11:31:54;9.82;;;7.80;;
80694;SDS011;70059;42.702;23.312;2024-01-25T11:34:20;7.72;;;6.20;;
80694;SDS011;70059;42.702;23.312;2024-01-25T11:36:46;9.77;;;6.65;;
80694;SDS011;70059;42.702;23.312;2024-01-25T11:39:13;8.57;;;6.00;;
80694;SDS011;70059;42.702;23.312;2024-01-25T11:41:43;10.00;;;6.55;;
80694;SDS011;70059;42.702;23.312;2024-01-25T11:44:11;12.63;;;6.45;;
80694;SDS011;70059;42.702;23.312;2024-01-25T11:46:40;6.53;;;5.88;;
80694;SDS011;70059;42.702;23.312;2024-01-25T11:49:07;8.90;;;7.40;;
80694;SDS011;70059;42.702;23.312;2024-01-25T11:51:32;12.18;;;6.72;;
80694;SDS011;70059;42.702;23.312;2024-01-25T11:53:58;9.80;;;6.50;;
80694;SDS011;70059;42.702;23.312;2024-01-25T11:56:34;13.23;;;6.35;;
80694;SDS011;70059;42.702;23.312;2024-01-25T11:59:05;12.07;;;6.38;;
80694;SDS011;70059;42.702;23.312;2024-01-25T12:01:31;7.10;;;5.60;;
80694;SDS011;70059;42.702;23.312;2024-01-25T12:03:57;9.80;;;6.60;;
80694;SDS011;70059;42.702;23.312;2024-01-25T12:06:23;9.15;;;5.82;;
80694;SDS011;70059;42.702;23.312;2024-01-25T12:08:49;10.13;;;6.90;;
80694;SDS011;70059;42.702;23.312;2024-01-25T12:11:16;10.13;;;6.93;;
80694;SDS011;70059;42.702;23.312;2024-01-25T12:13:50;9.27;;;6.05;;
80694;SDS011;70059;42.702;23.312;2024-01-25T12:16:17;8.65;;;7.07;;
80694;SDS011;70059;42.702;23.312;2024-01-25T12:18:43;9.82;;;7.00;;
80694;SDS011;70059;42.702;23.312;2024-01-25T12:21:09;15.70;;;7.97;;
80694;SDS011;70059;42.702;23.312;2024-01-25T12:23:36;9.55;;;7.00;;
80694;SDS011;70059;42.702;23.312;2024-01-25T12:26:06;11.95;;;7.03;;
80694;SDS011;70059;42.702;23.312;2024-01-25T12:28:40;10.63;;;7.03;;
80694;SDS011;70059;42.702;23.312;2024-01-25T12:31:06;7.72;;;6.13;;
80694;SDS011;70059;42.702;23.312;2024-01-25T12:33:41;15.98;;;6.30;;
80694;SDS011;70059;42.702;23.312;2024-01-25T12:36:08;8.95;;;6.90;;
80694;SDS011;70059;42.702;23.312;2024-01-25T12:38:34;8.90;;;6.38;;
80694;SDS011;70059;42.702;23.312;2024-01-25T12:41:00;8.93;;;6.78;;
80694;SDS011;70059;42.702;23.312;2024-01-25T12:43:26;12.15;;;7.65;;
80694;SDS011;70059;42.702;23.312;2024-01-25T12:45:58;10.57;;;7.47;;
80694;SDS011;70059;42.702;23.312;2024-01-25T12:48:24;8.43;;;6.30;;
80694;SDS011;70059;42.702;23.312;2024-01-25T12:50:50;10.38;;;7.18;;
80694;SDS011;70059;42.702;23.312;2024-01-25T12:53:16;9.20;;;7.50;;
80694;SDS011;70059;42.702;23.312;2024-01-25T12:55:42;8.20;;;6.32;;
80694;SDS011;70059;42.702;23.312;2024-01-25T12:58:08;11.25;;;7.38;;
80694;SDS011;70059;42.702;23.312;2024-01-25T13:00:33;9.55;;;6.55;;
80694;SDS011;70059;42.702;23.312;2024-01-25T13:02:59;10.30;;;7.18;;
80694;SDS011;70059;42.702;23.312;2024-01-25T13:05:28;10.05;;;7.45;;
80694;SDS011;70059;42.702;23.312;2024-01-25T13:07:58;8.23;;;7.00;;
80694;SDS011;70059;42.702;23.312;2024-01-25T13:10:30;8.32;;;7.43;;
80694;SDS011;70059;42.702;23.312;2024-01-25T13:12:56;10.85;;;8.43;;
80694;SDS011;70059;42.702;23.312;2024-01-25T13:15:22;14.55;;;8.90;;
80694;SDS011;70059;42.702;23.312;2024-01-25T13:17:55;13.63;;;8.98;;
80694;SDS011;70059;42.702;23.312;2024-01-25T13:20:22;10.35;;;8.32;;
80694;SDS011;70059;42.702;23.312;2024-01-25T13:22:47;9.35;;;7.88;;
80694;SDS011;70059;42.702;23.312;2024-01-25T13:25:13;9.73;;;7.22;;
80694;SDS011;70059;42.702;23.312;2024-01-25T13:27:40;14.68;;;7.72;;
80694;SDS011;70059;42.702;23.312;2024-01-25T13:30:15;10.50;;;7.70;;
80694;SDS011;70059;42.702;23.312;2024-01-25T13:35:50;7.65;;;6.35;;
80694;SDS011;70059;42.702;23.312;2024-01-25T13:38:16;11.40;;;6.97;;
80694;SDS011;70059;42.702;23.312;2024-01-25T13:40:48;11.02;;;7.10;;
80694;SDS011;70059;42.702;23.312;2024-01-25T13:43:15;10.60;;;7.10;;
80694;SDS011;70059;42.702;23.312;2024-01-25T13:45:53;11.95;;;7.82;;
80694;SDS011;70059;42.702;23.312;2024-01-25T13:48:44;11.32;;;6.75;;
80694;SDS011;70059;42.702;23.312;2024-01-25T13:51:11;8.63;;;7.00;;
80694;SDS011;70059;42.702;23.312;2024-01-25T13:53:37;8.35;;;6.40;;
80694;SDS011;70059;42.702;23.312;2024-01-25T13:56:03;11.70;;;7.30;;
80694;SDS011;70059;42.702;23.312;2024-01-25T13:58:30;15.18;;;7.60;;
80694;SDS011;70059;42.702;23.312;2024-01-25T14:00:57;11.35;;;7.40;;
80694;SDS011;70059;42.702;23.312;2024-01-25T14:03:30;10.57;;;7.82;;
80694;SDS011;70059;42.702;23.312;2024-01-25T14:05:56;12.10;;;7.88;;
80694;SDS011;70059;42.702;23.312;2024-01-25T14:08:22;13.57;;;8.05;;
80694;SDS011;70059;42.702;23.312;2024-01-25T14:10:48;11.25;;;6.97;;
80694;SDS011;70059;42.702;23.312;2024-01-25T14:13:14;10.73;;;6.80;;
80694;SDS011;70059;42.702;23.312;2024-01-25T14:15:40;14.15;;;7.75;;
80694;SDS011;70059;42.702;23.312;2024-01-25T14:18:05;12.00;;;7.00;;
80694;SDS011;70059;42.702;23.312;2024-01-25T14:20:31;10.32;;;7.03;;
80694;SDS011;70059;42.702;23.312;2024-01-25T14:22:57;9.35;;;6.88;;
80694;SDS011;70059;42.702;23.312;2024-01-25T14:25:23;11.38;;;7.15;;
80694;SDS011;70059;42.702;23.312;2024-01-25T14:27:55;9.90;;;6.55;;
80694;SDS011;70059;42.702;23.312;2024-01-25T14:30:21;8.60;;;6.57;;
80694;SDS011;70059;42.702;23.312;2024-01-25T14:32:47;9.15;;;6.95;;
80694;SDS011;70059;42.702;23.312;2024-01-25T14:35:13;11.63;;;7.40;;
80694;SDS011;70059;42.702;23.312;2024-01-25T14:37:38;10.32;;;6.72;;
80694;SDS011;70059;42.702;23.312;2024-01-25T14:40:10;10.60;;;7.10;;
80694;SDS011;70059;42.702;23.312;2024-01-25T14:42:36;12.13;;;7.30;;
80694;SDS011;70059;42.702;23.312;2024-01-25T14:45:04;11.30;;;6.75;;
80694;SDS011;70059;42.702;23.312;2024-01-25T14:47:30;12.60;;;7.43;;
80694;SDS011;70059;42.702;23.312;2024-01-25T14:49:55;13.30;;;7.10;;
80694;SDS011;70059;42.702;23.312;2024-01-25T14:52:21;16.48;;;7.55;;
80694;SDS011;70059;42.702;23.312;2024-01-25T14:54:47;14.85;;;8.20;;
80694;SDS011;70059;42.702;23.312;2024-01-25T14:57:13;10.02;;;7.63;;
80694;SDS011;70059;42.702;23.312;2024-01-25T14:59:41;11.25;;;7.28;;
80694;SDS011;70059;42.702;23.312;2024-01-25T15:02:08;9.48;;;7.00;;
80694;SDS011;70059;42.702;23.312;2024-01-25T15:04:37;16.08;;;7.90;;
80694;SDS011;70059;42.702;23.312;2024-01-25T15:07:03;12.30;;;8.05;;
80694;SDS011;70059;42.702;23.312;2024-01-25T15:09:29;15.50;;;9.27;;
80694;SDS011;70059;42.702;23.312;2024-01-25T15:11:55;9.80;;;7.13;;
80694;SDS011;70059;42.702;23.312;2024-01-25T15:14:23;13.38;;;6.88;;
80694;SDS011;70059;42.702;23.312;2024-01-25T15:16:49;9.13;;;7.32;;
80694;SDS011;70059;42.702;23.312;2024-01-25T15:19:17;9.95;;;6.82;;
80694;SDS011;70059;42.702;23.312;2024-01-25T15:21:43;8.77;;;6.80;;
80694;SDS011;70059;42.702;23.312;2024-01-25T15:24:18;14.60;;;7.68;;
80694;SDS011;70059;42.702;23.312;2024-01-25T15:26:44;13.00;;;7.60;;
80694;SDS011;70059;42.702;23.312;2024-01-25T15:29:10;12.32;;;7.50;;
80694;SDS011;70059;42.702;23.312;2024-01-25T15:31:36;13.45;;;7.20;;
80694;SDS011;70059;42.702;23.312;2024-01-25T15:34:01;13.30;;;7.50;;
80694;SDS011;70059;42.702;23.312;2024-01-25T15:36:27;10.18;;;6.90;;
80694;SDS011;70059;42.702;23.312;2024-01-25T15:38:53;19.33;;;10.57;;